createdAt,value
2018-12-16T00:01:04.873Z,44.17
2018-12-16T00:03:32.356Z,45.00
2018-12-16T00:05:59.856Z,49.23
2018-12-16T00:08:27.365Z,44.53
2018-12-16T00:10:54.868Z,48.37
2018-12-16T00:13:22.348Z,45.60
2018-12-16T00:15:49.841Z,46.63
2018-12-16T00:18:17.323Z,47.77
2018-12-16T00:20:44.824Z,46.97
2018-12-16T00:23:12.316Z,48.07
2018-12-16T00:25:39.828Z,47.93
2018-12-16T00:28:07.315Z,47.57
2018-12-16T00:30:34.777Z,43.43
2018-12-16T00:33:02.298Z,46.87
2018-12-16T00:35:29.769Z,46.73
2018-12-16T00:37:57.245Z,46.67
2018-12-16T00:40:24.726Z,44.13
2018-12-16T00:42:52.208Z,48.83
2018-12-16T00:45:19.687Z,49.57
2018-12-16T00:47:47.611Z,47.10
2018-12-16T00:50:15.204Z,44.60
2018-12-16T00:52:42.711Z,45.03
2018-12-16T00:55:10.199Z,44.73
2018-12-16T00:57:37.690Z,44.10
2018-12-16T01:00:09.579Z,45.23
2018-12-16T01:02:41.644Z,45.07
2018-12-16T01:05:09.788Z,42.50
2018-12-16T01:07:37.278Z,47.93
2018-12-16T01:10:06.535Z,47.40
2018-12-16T01:12:34.038Z,47.83
2018-12-16T01:15:01.520Z,46.23
2018-12-16T01:17:28.990Z,48.80
2018-12-16T01:19:56.466Z,47.73
2018-12-16T01:22:23.972Z,45.60
2018-12-16T01:24:51.450Z,49.47
2018-12-16T01:27:18.938Z,48.43
2018-12-16T01:29:46.481Z,55.10
2018-12-16T01:32:13.966Z,48.77
2018-12-16T01:34:42.207Z,49.20
2018-12-16T01:37:09.760Z,53.33
2018-12-16T01:39:37.250Z,52.33
2018-12-16T01:42:04.737Z,55.10
2018-12-16T01:44:32.227Z,55.83
2018-12-16T01:46:59.700Z,52.20
2018-12-16T01:49:27.214Z,57.47
2018-12-16T01:51:54.725Z,53.07
2018-12-16T01:54:22.199Z,52.40
2018-12-16T01:56:49.694Z,50.73
2018-12-16T01:59:17.161Z,56.23
2018-12-16T02:01:46.676Z,60.13
2018-12-16T02:04:14.151Z,52.83
2018-12-16T02:06:41.632Z,54.40
2018-12-16T02:09:11.111Z,56.40
2018-12-16T02:11:38.891Z,50.27
2018-12-16T02:14:06.418Z,52.70
2018-12-16T02:16:34.372Z,50.53
2018-12-16T02:19:01.859Z,55.43
2018-12-16T02:21:30.266Z,55.70
2018-12-16T02:23:57.737Z,50.60
2018-12-16T02:26:25.221Z,53.83
2018-12-16T02:28:52.715Z,48.20
2018-12-16T02:31:20.198Z,51.43
2018-12-16T02:33:47.695Z,57.00
2018-12-16T02:36:15.217Z,50.50
2018-12-16T02:38:42.694Z,52.80
2018-12-16T02:41:10.182Z,49.87
2018-12-16T02:43:37.662Z,52.90
2018-12-16T02:46:05.147Z,50.03
2018-12-16T02:48:32.637Z,56.00
2018-12-16T02:51:00.115Z,53.93
2018-12-16T02:53:27.590Z,51.07
2018-12-16T02:55:55.089Z,54.90
2018-12-16T02:58:22.561Z,51.23
2018-12-16T03:00:50.048Z,51.10
2018-12-16T03:03:17.562Z,53.37
2018-12-16T03:05:45.038Z,54.57
2018-12-16T03:08:12.511Z,58.00
2018-12-16T03:10:39.987Z,49.40
2018-12-16T03:13:07.463Z,50.63
2018-12-16T03:15:34.960Z,48.00
2018-12-16T03:18:02.434Z,54.03
2018-12-16T03:20:29.926Z,56.67
2018-12-16T03:22:57.398Z,51.40
2018-12-16T03:25:24.883Z,51.03
2018-12-16T03:27:52.374Z,58.80
2018-12-16T03:30:19.854Z,48.87
2018-12-16T03:32:47.362Z,55.43
2018-12-16T03:35:14.959Z,51.00
2018-12-16T03:37:42.461Z,45.17
2018-12-16T03:40:09.941Z,46.80
2018-12-16T03:42:37.420Z,49.97
2018-12-16T03:45:04.897Z,56.67
2018-12-16T03:47:32.373Z,48.17
2018-12-16T03:49:59.864Z,53.43
2018-12-16T03:52:27.336Z,53.73
2018-12-16T03:54:54.841Z,50.43
2018-12-16T03:57:22.454Z,56.33
2018-12-16T03:59:49.957Z,53.23
2018-12-16T04:02:17.435Z,52.30
2018-12-16T04:04:44.908Z,52.33
2018-12-16T04:07:12.388Z,52.40
2018-12-16T04:09:39.876Z,51.83
2018-12-16T04:12:07.374Z,54.17
2018-12-16T04:14:34.865Z,47.77
2018-12-16T04:17:02.363Z,50.60
2018-12-16T04:19:29.834Z,52.23
2018-12-16T04:21:57.333Z,52.00
2018-12-16T04:24:24.805Z,50.27
2018-12-16T04:26:52.283Z,49.67
2018-12-16T04:29:19.770Z,52.17
2018-12-16T04:31:47.264Z,55.13
2018-12-16T04:34:14.765Z,46.00
2018-12-16T04:36:42.252Z,49.03
2018-12-16T04:39:09.723Z,50.83
2018-12-16T04:41:37.195Z,63.20
2018-12-16T04:44:04.675Z,56.17
2018-12-16T04:46:32.147Z,46.33
2018-12-16T04:48:59.621Z,52.93
2018-12-16T04:51:27.141Z,46.20
2018-12-16T04:53:54.623Z,53.20
2018-12-16T04:56:22.126Z,47.43
2018-12-16T04:58:49.619Z,50.27
2018-12-16T05:01:17.107Z,47.13
2018-12-16T05:03:44.600Z,48.40
2018-12-16T05:06:12.102Z,49.57
2018-12-16T05:08:39.569Z,44.57
2018-12-16T05:11:07.069Z,45.33
2018-12-16T05:13:34.578Z,47.67
2018-12-16T05:16:02.054Z,49.77
2018-12-16T05:18:29.554Z,47.80
2018-12-16T05:20:57.039Z,46.40
2018-12-16T05:23:24.517Z,50.37
2018-12-16T05:25:51.999Z,55.60
2018-12-16T05:28:19.475Z,49.83
2018-12-16T05:30:47.016Z,54.43
2018-12-16T05:33:14.500Z,49.53
2018-12-16T05:35:41.983Z,49.43
2018-12-16T05:38:09.463Z,47.63
2018-12-16T05:40:36.934Z,54.20
2018-12-16T05:43:04.419Z,49.23
2018-12-16T05:45:31.891Z,54.93
2018-12-16T05:47:59.396Z,52.50
2018-12-16T05:50:26.877Z,48.27
2018-12-16T05:52:54.347Z,51.60
2018-12-16T05:55:21.854Z,55.00
2018-12-16T05:57:49.362Z,54.57
2018-12-16T06:00:16.834Z,54.97
2018-12-16T06:02:44.319Z,51.00
2018-12-16T06:05:11.840Z,49.10
2018-12-16T06:07:39.364Z,55.73
2018-12-16T06:10:06.930Z,47.13
2018-12-16T06:12:34.465Z,54.23
2018-12-16T06:15:01.945Z,54.83
2018-12-16T06:17:29.438Z,52.20
2018-12-16T06:19:57.914Z,57.03
2018-12-16T06:22:25.415Z,53.60
2018-12-16T06:24:52.882Z,52.73
2018-12-16T06:27:20.371Z,53.73
2018-12-16T06:29:48.141Z,52.60
2018-12-16T06:32:15.633Z,50.67
2018-12-16T06:34:43.118Z,54.00
2018-12-16T06:37:10.709Z,53.83
2018-12-16T06:39:38.210Z,54.23
2018-12-16T06:42:05.710Z,55.23
2018-12-16T06:44:33.186Z,52.63
2018-12-16T06:47:00.667Z,53.43
2018-12-16T06:49:28.159Z,54.23
2018-12-16T06:51:55.660Z,55.07
2018-12-16T06:54:23.152Z,54.27
2018-12-16T06:57:00.364Z,53.17
2018-12-16T06:59:27.903Z,53.40
2018-12-16T07:01:55.385Z,57.27
2018-12-16T07:04:22.893Z,52.63
2018-12-16T07:06:50.519Z,52.10
2018-12-16T07:09:17.996Z,54.07
2018-12-16T07:11:45.503Z,51.27
2018-12-16T07:14:13.017Z,52.67
2018-12-16T07:16:40.697Z,57.40
2018-12-16T07:19:08.422Z,52.53
2018-12-16T07:21:35.928Z,54.47
2018-12-16T07:24:09.241Z,54.60
2018-12-16T07:26:33.009Z,53.83
2018-12-16T07:29:00.538Z,57.03
2018-12-16T07:31:28.136Z,54.37
2018-12-16T07:33:55.734Z,58.23
2018-12-16T07:36:23.213Z,56.80
2018-12-16T07:38:50.738Z,52.50
2018-12-16T07:41:18.239Z,51.47
2018-12-16T07:43:45.884Z,55.37
2018-12-16T07:46:13.441Z,55.40
2018-12-16T07:48:41.067Z,53.37
2018-12-16T07:51:08.671Z,47.93
2018-12-16T07:53:36.172Z,52.27
2018-12-16T07:56:03.795Z,58.70
2018-12-16T07:58:31.472Z,54.97
2018-12-16T08:00:59.076Z,53.93
2018-12-16T08:03:26.671Z,50.93
2018-12-16T08:05:54.147Z,50.30
2018-12-16T08:08:21.763Z,54.03
2018-12-16T08:10:49.238Z,53.33
2018-12-16T08:13:16.706Z,53.37
2018-12-16T08:15:44.197Z,51.40
2018-12-16T08:18:11.673Z,50.73
2018-12-16T08:20:39.181Z,51.70
2018-12-16T08:23:06.754Z,52.23
2018-12-16T08:25:34.261Z,53.30
2018-12-16T08:28:01.733Z,51.37
2018-12-16T08:30:29.300Z,56.80
2018-12-16T08:32:56.786Z,51.90
2018-12-16T08:35:24.251Z,56.77
2018-12-16T08:37:51.715Z,48.80
2018-12-16T08:40:21.226Z,49.17
2018-12-16T08:42:48.726Z,49.73
2018-12-16T08:45:16.252Z,46.93
2018-12-16T08:47:43.731Z,49.57
2018-12-16T08:50:11.194Z,49.97
2018-12-16T08:52:38.669Z,46.57
2018-12-16T08:55:06.141Z,51.93
2018-12-16T08:57:33.620Z,49.93
2018-12-16T09:00:01.089Z,47.27
2018-12-16T09:02:28.564Z,45.53
2018-12-16T09:04:56.061Z,49.83
2018-12-16T09:07:23.531Z,45.43
2018-12-16T09:09:51.025Z,46.93
2018-12-16T09:12:19.470Z,50.83
2018-12-16T09:14:52.765Z,48.20
2018-12-16T09:17:20.247Z,45.83
2018-12-16T09:19:47.721Z,49.93
2018-12-16T09:22:15.218Z,46.97
2018-12-16T09:24:42.703Z,45.90
2018-12-16T09:27:10.187Z,44.97
2018-12-16T09:29:37.667Z,46.03
2018-12-16T09:32:05.145Z,48.37
2018-12-16T09:34:32.641Z,51.30
2018-12-16T09:37:00.115Z,44.13
2018-12-16T09:39:27.604Z,53.20
2018-12-16T09:41:55.104Z,50.87
2018-12-16T09:44:22.586Z,43.73
2018-12-16T09:46:50.120Z,48.30
2018-12-16T09:49:17.599Z,50.63
2018-12-16T09:51:45.067Z,47.43
2018-12-16T09:54:12.588Z,44.53
2018-12-16T09:56:40.059Z,45.60
2018-12-16T09:59:07.565Z,46.70
2018-12-16T10:01:35.047Z,45.50
2018-12-16T10:04:02.582Z,45.70
2018-12-16T10:06:30.121Z,48.03
2018-12-16T10:08:57.619Z,44.00
2018-12-16T10:11:25.090Z,44.20
2018-12-16T10:13:54.501Z,43.43
2018-12-16T10:16:21.973Z,46.13
2018-12-16T10:18:50.445Z,44.53
2018-12-16T10:21:19.961Z,44.80
2018-12-16T10:23:51.131Z,46.50
2018-12-16T10:26:21.725Z,45.73
2018-12-16T10:28:49.255Z,45.90
2018-12-16T10:31:17.025Z,44.63
2018-12-16T10:33:45.715Z,40.63
2018-12-16T10:36:15.114Z,42.60
2018-12-16T10:38:48.188Z,44.67
2018-12-16T10:41:16.917Z,45.23
2018-12-16T10:43:44.445Z,46.50
2018-12-16T10:46:13.928Z,40.30
2018-12-16T10:48:45.050Z,47.50
2018-12-16T10:51:12.585Z,47.30
2018-12-16T10:53:40.122Z,42.67
2018-12-16T10:56:07.693Z,47.97
2018-12-16T10:58:39.084Z,49.30
2018-12-16T11:01:12.230Z,44.53
2018-12-16T11:03:39.773Z,43.13
2018-12-16T11:06:07.348Z,42.77
2018-12-16T11:08:35.011Z,45.77
2018-12-16T11:11:02.608Z,44.30
2018-12-16T11:13:30.134Z,42.17
2018-12-16T11:15:57.690Z,42.73
2018-12-16T11:18:25.279Z,45.10
2018-12-16T11:20:52.839Z,45.20
2018-12-16T11:23:20.396Z,47.47
2018-12-16T11:25:48.197Z,54.30
2018-12-16T11:28:15.783Z,43.57
2018-12-16T11:30:43.371Z,44.83
2018-12-16T11:33:10.902Z,39.33
2018-12-16T11:35:38.573Z,43.90
2018-12-16T11:38:06.153Z,44.53
2018-12-16T11:40:33.753Z,46.37
2018-12-16T11:43:01.366Z,46.63
2018-12-16T11:45:28.953Z,45.17
2018-12-16T11:47:56.767Z,44.57
2018-12-16T11:50:24.367Z,44.37
2018-12-16T11:52:51.907Z,44.23
2018-12-16T11:55:19.547Z,45.67
2018-12-16T11:57:47.041Z,47.43
2018-12-16T12:00:14.598Z,44.10
2018-12-16T12:02:42.190Z,45.17
2018-12-16T12:05:09.734Z,43.07
2018-12-16T12:07:37.339Z,47.03
2018-12-16T12:10:05.399Z,47.63
2018-12-16T12:12:32.872Z,42.13
2018-12-16T12:15:00.362Z,46.70
2018-12-16T12:17:27.827Z,41.13
2018-12-16T12:19:55.308Z,48.23
2018-12-16T12:22:22.778Z,44.40
2018-12-16T12:24:50.246Z,48.00
2018-12-16T12:27:18.692Z,48.30
2018-12-16T12:29:46.168Z,45.13
2018-12-16T12:32:13.639Z,46.30
2018-12-16T12:34:41.118Z,50.73
2018-12-16T12:37:08.590Z,50.07
2018-12-16T12:39:36.058Z,47.90
2018-12-16T12:42:03.539Z,42.97
2018-12-16T12:44:31.029Z,46.63
2018-12-16T12:46:58.507Z,51.67
2018-12-16T12:49:25.975Z,46.47
2018-12-16T12:51:53.448Z,50.90
2018-12-16T12:54:20.967Z,48.60
2018-12-16T12:56:48.454Z,46.97
2018-12-16T12:59:15.924Z,44.70
2018-12-16T13:01:43.399Z,47.50
2018-12-16T13:04:10.866Z,48.67
2018-12-16T13:06:38.337Z,49.20
2018-12-16T13:09:06.499Z,45.50
2018-12-16T13:11:34.946Z,48.87
2018-12-16T13:14:03.426Z,47.17
2018-12-16T13:16:30.889Z,47.57
2018-12-16T13:18:58.360Z,50.30
2018-12-16T13:21:25.817Z,48.10
2018-12-16T13:23:54.303Z,47.00
2018-12-16T13:26:21.978Z,46.17
2018-12-16T13:28:54.746Z,45.80
2018-12-16T13:31:22.223Z,47.23
2018-12-16T13:33:52.748Z,49.63
2018-12-16T13:36:21.329Z,52.10
2018-12-16T13:38:48.803Z,48.20
2018-12-16T13:41:16.306Z,49.63
2018-12-16T13:43:43.770Z,48.77
2018-12-16T13:46:11.243Z,43.97
2018-12-16T13:48:38.717Z,53.87
2018-12-16T13:51:06.418Z,47.47
2018-12-16T13:53:34.983Z,54.77
2018-12-16T13:56:02.458Z,53.43
2018-12-16T13:58:29.926Z,52.77
2018-12-16T14:00:57.393Z,47.63
2018-12-16T14:03:24.865Z,44.00
2018-12-16T14:05:52.922Z,53.40
2018-12-16T14:08:20.421Z,54.30
2018-12-16T14:10:47.900Z,47.37
2018-12-16T14:13:15.395Z,50.27
2018-12-16T14:15:42.885Z,49.67
2018-12-16T14:18:10.354Z,47.90
2018-12-16T14:20:37.874Z,47.37
2018-12-16T14:23:05.349Z,52.87
2018-12-16T14:25:32.824Z,53.40
2018-12-16T14:28:00.327Z,49.27
2018-12-16T14:30:27.821Z,61.33
2018-12-16T14:32:55.286Z,54.03
2018-12-16T14:35:22.940Z,47.60
2018-12-16T14:37:50.414Z,55.27
2018-12-16T14:40:19.929Z,50.83
2018-12-16T14:45:41.799Z,54.53
2018-12-16T14:48:09.417Z,51.23
2018-12-16T14:50:37.042Z,57.00
2018-12-16T14:53:04.659Z,52.80
2018-12-16T14:55:32.251Z,50.67
2018-12-16T14:57:59.859Z,51.00
2018-12-16T15:00:27.592Z,50.17
2018-12-16T15:02:55.183Z,49.33
2018-12-16T15:05:27.277Z,43.70
2018-12-16T15:07:54.902Z,49.13
2018-12-16T15:10:22.507Z,51.90
2018-12-16T15:12:50.211Z,50.80
2018-12-16T15:15:18.583Z,44.50
2018-12-16T15:17:46.221Z,47.80
2018-12-16T15:20:13.775Z,50.10
2018-12-16T15:22:41.369Z,48.43
2018-12-16T15:25:08.899Z,48.30
2018-12-16T15:27:36.454Z,52.60
2018-12-16T15:30:06.836Z,56.20
2018-12-16T15:32:34.453Z,56.47
2018-12-16T15:35:01.927Z,53.33
2018-12-16T15:37:29.398Z,46.60
2018-12-16T15:39:56.870Z,51.60
2018-12-16T15:42:24.336Z,50.23
2018-12-16T15:44:51.842Z,48.60
2018-12-16T15:47:20.230Z,50.57
2018-12-16T15:49:47.694Z,54.90
2018-12-16T15:52:15.205Z,49.17
2018-12-16T15:54:42.676Z,49.53
2018-12-16T15:57:10.250Z,59.10
2018-12-16T15:59:37.747Z,55.13
2018-12-16T16:02:05.218Z,55.73
2018-12-16T16:04:32.681Z,53.57
2018-12-16T16:07:00.150Z,47.97
2018-12-16T16:09:27.619Z,55.93
2018-12-16T16:11:55.100Z,58.37
2018-12-16T16:14:22.590Z,48.90
2018-12-16T16:16:50.063Z,47.77
2018-12-16T16:19:17.567Z,52.43
2018-12-16T16:21:45.029Z,46.67
2018-12-16T16:24:12.499Z,46.13
2018-12-16T16:26:39.982Z,50.97
2018-12-16T16:29:07.459Z,49.43
2018-12-16T16:31:34.960Z,49.73
2018-12-16T16:34:02.436Z,46.60
2018-12-16T16:36:29.907Z,48.53
2018-12-16T16:38:57.382Z,47.70
2018-12-16T16:41:24.847Z,48.90
2018-12-16T16:43:52.315Z,54.57
2018-12-16T16:46:19.784Z,56.23
2018-12-16T16:48:47.254Z,54.57
2018-12-16T16:51:14.756Z,59.33
2018-12-16T16:53:42.226Z,53.77
2018-12-16T16:56:09.695Z,51.50
2018-12-16T16:58:37.183Z,53.33
2018-12-16T17:01:04.751Z,52.87
2018-12-16T17:03:32.283Z,50.20
2018-12-16T17:05:59.750Z,56.00
2018-12-16T17:08:27.235Z,52.70
2018-12-16T17:10:54.706Z,51.40
2018-12-16T17:13:22.179Z,52.47
2018-12-16T17:15:49.646Z,53.57
2018-12-16T17:18:17.177Z,57.37
2018-12-16T17:20:44.646Z,53.60
2018-12-16T17:23:12.148Z,53.40
2018-12-16T17:25:39.614Z,55.10
2018-12-16T17:28:07.101Z,51.23
2018-12-16T17:30:34.575Z,48.73
2018-12-16T17:33:02.043Z,58.27
2018-12-16T17:35:29.539Z,50.10
2018-12-16T17:37:57.003Z,60.53
2018-12-16T17:40:24.496Z,50.37
2018-12-16T17:42:51.972Z,55.27
2018-12-16T17:45:19.444Z,55.70
2018-12-16T17:47:46.906Z,53.23
2018-12-16T17:50:14.377Z,57.60
2018-12-16T17:52:41.867Z,63.60
2018-12-16T17:55:09.337Z,56.10
2018-12-16T17:57:36.819Z,65.73
2018-12-16T18:00:06.392Z,66.20
2018-12-16T18:02:33.871Z,63.23
2018-12-16T18:05:01.343Z,63.83
2018-12-16T18:07:28.817Z,64.10
2018-12-16T18:09:56.295Z,64.87
2018-12-16T18:12:23.810Z,67.40
2018-12-16T18:14:51.310Z,68.40
2018-12-16T18:17:18.812Z,67.40
2018-12-16T18:19:46.286Z,69.47
2018-12-16T18:22:14.094Z,68.43
2018-12-16T18:24:41.863Z,69.03
2018-12-16T18:27:09.330Z,65.40
2018-12-16T18:29:36.821Z,64.60
2018-12-16T18:32:04.671Z,64.50
2018-12-16T18:34:32.150Z,66.60
2018-12-16T18:36:59.663Z,75.30
2018-12-16T18:39:27.198Z,64.93
2018-12-16T18:41:57.095Z,75.07
2018-12-16T18:44:24.549Z,69.70
2018-12-16T18:46:52.027Z,80.73
2018-12-16T18:49:19.522Z,65.30
2018-12-16T18:51:47.024Z,68.60
2018-12-16T18:54:15.174Z,64.73
2018-12-16T18:56:42.662Z,66.07
2018-12-16T18:59:10.199Z,65.80
2018-12-16T19:01:37.741Z,66.73
2018-12-16T19:04:05.331Z,63.53
2018-12-16T19:06:33.227Z,58.77
2018-12-16T19:09:00.708Z,69.03
2018-12-16T19:11:28.193Z,72.83
2018-12-16T19:13:55.677Z,68.50
2018-12-16T19:16:23.180Z,68.03
2018-12-16T19:18:50.800Z,71.07
2018-12-16T19:21:18.415Z,66.13
2018-12-16T19:23:45.903Z,62.97
2018-12-16T19:26:13.376Z,62.03
2018-12-16T19:28:40.845Z,67.40
2018-12-16T19:31:08.387Z,91.63
2018-12-16T19:33:35.889Z,76.83
2018-12-16T19:36:04.026Z,76.57
2018-12-16T19:38:31.511Z,72.07
2018-12-16T19:40:58.990Z,58.03
2018-12-16T19:43:30.350Z,66.47
2018-12-16T19:45:57.855Z,60.23
2018-12-16T19:48:25.329Z,63.63
2018-12-16T19:50:52.811Z,63.13
2018-12-16T19:53:20.367Z,71.47
2018-12-16T19:55:47.871Z,70.87
2018-12-16T19:58:15.368Z,69.63
2018-12-16T20:00:42.890Z,60.30
2018-12-16T20:03:18.059Z,68.97
2018-12-16T20:05:51.181Z,64.23
2018-12-16T20:08:18.739Z,63.77
2018-12-16T20:10:46.225Z,62.47
2018-12-16T20:13:14.711Z,62.07
2018-12-16T20:15:43.386Z,73.93
2018-12-16T20:18:10.935Z,63.20
2018-12-16T20:20:39.424Z,59.30
2018-12-16T20:23:06.930Z,67.57
2018-12-16T20:25:34.419Z,63.23
2018-12-16T20:28:01.930Z,60.17
2018-12-16T20:30:29.413Z,66.87
2018-12-16T20:32:56.929Z,62.37
2018-12-16T20:35:24.735Z,63.63
2018-12-16T20:37:52.604Z,60.70
2018-12-16T20:40:20.137Z,63.73
2018-12-16T20:42:48.299Z,62.90
2018-12-16T20:45:15.788Z,64.03
2018-12-16T20:47:45.202Z,65.20
2018-12-16T20:50:12.681Z,73.83
2018-12-16T20:52:40.177Z,65.80
2018-12-16T20:55:07.721Z,57.70
2018-12-16T20:57:35.206Z,68.47
2018-12-16T21:00:03.214Z,65.77
2018-12-16T21:02:30.712Z,77.53
2018-12-16T21:04:58.225Z,67.23
2018-12-16T21:07:25.776Z,63.13
2018-12-16T21:09:53.275Z,71.00
2018-12-16T21:12:27.140Z,68.30
2018-12-16T21:15:00.263Z,66.83
2018-12-16T21:17:33.344Z,70.27
2018-12-16T21:20:00.840Z,59.60
2018-12-16T21:22:33.115Z,61.63
2018-12-16T21:25:00.605Z,64.37
2018-12-16T21:27:29.034Z,64.00
2018-12-16T21:29:57.527Z,61.33
2018-12-16T21:32:25.015Z,61.83
2018-12-16T21:34:52.536Z,61.03
2018-12-16T21:37:20.022Z,53.23
2018-12-16T21:39:47.493Z,57.87
2018-12-16T21:42:15.363Z,66.90
2018-12-16T21:44:42.837Z,59.00
2018-12-16T21:47:10.336Z,58.40
2018-12-16T21:49:37.870Z,53.63
2018-12-16T21:52:05.352Z,57.23
2018-12-16T21:54:32.871Z,54.13
2018-12-16T21:57:00.391Z,59.60
2018-12-16T21:59:27.970Z,58.93
2018-12-16T22:01:55.469Z,59.87
2018-12-16T22:04:23.070Z,66.07
2018-12-16T22:06:50.830Z,61.50
2018-12-16T22:09:19.302Z,66.33
2018-12-16T22:11:46.785Z,58.20
2018-12-16T22:14:14.283Z,55.83
2018-12-16T22:16:43.739Z,61.93
2018-12-16T22:19:11.207Z,54.10
2018-12-16T22:21:38.723Z,59.57
2018-12-16T22:24:06.225Z,55.17
2018-12-16T22:26:33.914Z,62.47
2018-12-16T22:29:01.441Z,53.53
2018-12-16T22:31:28.922Z,54.33
2018-12-16T22:33:56.415Z,56.13
2018-12-16T22:36:23.898Z,51.07
2018-12-16T22:38:51.379Z,53.37
2018-12-16T22:41:18.862Z,53.60
2018-12-16T22:43:46.522Z,56.10
2018-12-16T22:46:14.390Z,60.63
2018-12-16T22:48:42.394Z,50.33
2018-12-16T22:51:09.931Z,56.33
2018-12-16T22:53:37.498Z,51.27
2018-12-16T22:56:04.987Z,47.27
2018-12-16T22:58:32.493Z,55.83
2018-12-16T23:01:05.401Z,54.37
2018-12-16T23:03:32.898Z,58.87
2018-12-16T23:06:02.274Z,60.10
2018-12-16T23:08:29.824Z,55.40
2018-12-16T23:10:57.303Z,50.13
2018-12-16T23:13:24.777Z,56.90
2018-12-16T23:15:52.244Z,54.40
2018-12-16T23:18:19.796Z,54.47
2018-12-16T23:20:47.346Z,55.03
2018-12-16T23:23:14.817Z,55.50
2018-12-16T23:25:42.302Z,49.10
2018-12-16T23:28:09.783Z,61.60
2018-12-16T23:30:37.283Z,59.60
2018-12-16T23:33:04.788Z,54.60
2018-12-16T23:35:32.290Z,53.77
2018-12-16T23:37:59.789Z,57.93
2018-12-16T23:40:27.258Z,55.77
2018-12-16T23:42:54.775Z,59.23
2018-12-16T23:45:22.246Z,53.83
2018-12-16T23:47:49.739Z,67.60
2018-12-16T23:50:17.261Z,57.30
2018-12-16T23:52:44.736Z,58.27
2018-12-16T23:55:12.218Z,61.27
2018-12-16T23:57:39.702Z,66.57
